sensor_id;sensor_type;location;lat;lon;timestamp;temperature;humidity
29207;DHT22;16247;50.840;4.382;2023-09-19T00:00:42;16.70;99.90
29207;DHT22;16247;50.840;4.382;2023-09-19T00:03:10;16.80;99.90
29207;DHT22;16247;50.840;4.382;2023-09-19T00:05:38;16.70;99.90
29207;DHT22;16247;50.840;4.382;2023-09-19T00:08:04;16.60;99.90
29207;DHT22;16247;50.840;4.382;2023-09-19T00:10:33;16.60;99.90
29207;DHT22;16247;50.840;4.382;2023-09-19T00:13:02;16.60;99.90
29207;DHT22;16247;50.840;4.382;2023-09-19T00:15:36;16.60;99.90
29207;DHT22;16247;50.840;4.382;2023-09-19T00:18:03;16.70;99.90
29207;DHT22;16247;50.840;4.382;2023-09-19T00:20:32;16.50;99.90
29207;DHT22;16247;50.840;4.382;2023-09-19T00:23:00;16.60;99.90
29207;DHT22;16247;50.840;4.382;2023-09-19T00:25:28;16.70;99.90
29207;DHT22;16247;50.840;4.382;2023-09-19T00:27:54;16.60;99.90
29207;DHT22;16247;50.840;4.382;2023-09-19T00:30:21;16.50;99.90
29207;DHT22;16247;50.840;4.382;2023-09-19T00:33:06;16.50;99.90
29207;DHT22;16247;50.840;4.382;2023-09-19T00:35:58;16.50;99.90
29207;DHT22;16247;50.840;4.382;2023-09-19T00:38:34;16.50;99.90
29207;DHT22;16247;50.840;4.382;2023-09-19T00:41:02;16.40;99.90
29207;DHT22;16247;50.840;4.382;2023-09-19T00:43:41;16.40;99.90
29207;DHT22;16247;50.840;4.382;2023-09-19T00:46:22;16.30;99.90
29207;DHT22;16247;50.840;4.382;2023-09-19T00:48:55;16.40;99.90
29207;DHT22;16247;50.840;4.382;2023-09-19T00:51:27;16.40;99.90
29207;DHT22;16247;50.840;4.382;2023-09-19T00:53:54;16.20;99.90
29207;DHT22;16247;50.840;4.382;2023-09-19T00:56:22;16.50;99.90
29207;DHT22;16247;50.840;4.382;2023-09-19T00:58:48;16.30;99.90
29207;DHT22;16247;50.840;4.382;2023-09-19T01:01:14;16.30;99.90
29207;DHT22;16247;50.840;4.382;2023-09-19T01:03:41;16.30;99.90
29207;DHT22;16247;50.840;4.382;2023-09-19T01:06:08;16.20;99.90
29207;DHT22;16247;50.840;4.382;2023-09-19T01:08:34;16.30;99.90
29207;DHT22;16247;50.840;4.382;2023-09-19T01:11:16;16.20;99.90
29207;DHT22;16247;50.840;4.382;2023-09-19T01:14:28;16.20;99.90
29207;DHT22;16247;50.840;4.382;2023-09-19T01:17:20;16.30;99.90
29207;DHT22;16247;50.840;4.382;2023-09-19T01:23:40;16.40;99.90
29207;DHT22;16247;50.840;4.382;2023-09-19T01:29:24;16.20;99.90
29207;DHT22;16247;50.840;4.382;2023-09-19T01:32:21;16.20;99.90
29207;DHT22;16247;50.840;4.382;2023-09-19T01:34:58;16.30;99.90
29207;DHT22;16247;50.840;4.382;2023-09-19T01:37:30;16.20;99.90
29207;DHT22;16247;50.840;4.382;2023-09-19T01:40:07;16.20;99.90
29207;DHT22;16247;50.840;4.382;2023-09-19T01:42:45;16.10;99.90
29207;DHT22;16247;50.840;4.382;2023-09-19T01:45:33;16.30;99.90
29207;DHT22;16247;50.840;4.382;2023-09-19T01:48:24;16.20;99.90
29207;DHT22;16247;50.840;4.382;2023-09-19T01:51:09;16.30;99.90
29207;DHT22;16247;50.840;4.382;2023-09-19T01:53:56;16.20;99.90
29207;DHT22;16247;50.840;4.382;2023-09-19T01:56:37;16.20;99.90
29207;DHT22;16247;50.840;4.382;2023-09-19T01:59:10;16.20;99.90
29207;DHT22;16247;50.840;4.382;2023-09-19T02:01:39;16.20;99.90
29207;DHT22;16247;50.840;4.382;2023-09-19T02:04:07;16.20;99.90
29207;DHT22;16247;50.840;4.382;2023-09-19T02:06:34;16.10;99.90
29207;DHT22;16247;50.840;4.382;2023-09-19T02:09:00;16.20;99.90
29207;DHT22;16247;50.840;4.382;2023-09-19T02:11:28;16.10;99.90
29207;DHT22;16247;50.840;4.382;2023-09-19T02:14:00;15.90;99.90
29207;DHT22;16247;50.840;4.382;2023-09-19T02:16:35;16.10;99.90
29207;DHT22;16247;50.840;4.382;2023-09-19T02:19:01;16.10;99.90
29207;DHT22;16247;50.840;4.382;2023-09-19T02:21:31;16.10;99.90
29207;DHT22;16247;50.840;4.382;2023-09-19T02:23:59;16.00;99.90
29207;DHT22;16247;50.840;4.382;2023-09-19T02:26:24;16.00;99.90
29207;DHT22;16247;50.840;4.382;2023-09-19T02:28:50;16.10;99.90
29207;DHT22;16247;50.840;4.382;2023-09-19T02:33:53;16.10;99.90
29207;DHT22;16247;50.840;4.382;2023-09-19T02:36:19;16.20;99.90
29207;DHT22;16247;50.840;4.382;2023-09-19T02:38:46;16.10;99.90
29207;DHT22;16247;50.840;4.382;2023-09-19T02:41:13;16.10;99.90
29207;DHT22;16247;50.840;4.382;2023-09-19T02:43:42;16.20;99.90
29207;DHT22;16247;50.840;4.382;2023-09-19T02:46:10;16.10;99.90
29207;DHT22;16247;50.840;4.382;2023-09-19T02:48:37;16.10;99.90
29207;DHT22;16247;50.840;4.382;2023-09-19T02:51:03;16.10;99.90
29207;DHT22;16247;50.840;4.382;2023-09-19T02:53:29;16.30;99.90
29207;DHT22;16247;50.840;4.382;2023-09-19T02:55:57;16.10;99.90
29207;DHT22;16247;50.840;4.382;2023-09-19T02:58:23;16.10;99.90
29207;DHT22;16247;50.840;4.382;2023-09-19T03:00:50;16.10;99.90
29207;DHT22;16247;50.840;4.382;2023-09-19T03:03:18;16.10;99.90
29207;DHT22;16247;50.840;4.382;2023-09-19T03:05:44;16.20;99.90
29207;DHT22;16247;50.840;4.382;2023-09-19T03:08:15;16.00;99.90
29207;DHT22;16247;50.840;4.382;2023-09-19T03:10:44;16.00;99.90
29207;DHT22;16247;50.840;4.382;2023-09-19T03:13:11;16.00;99.90
29207;DHT22;16247;50.840;4.382;2023-09-19T03:15:44;16.00;99.90
29207;DHT22;16247;50.840;4.382;2023-09-19T03:18:12;16.10;99.90
29207;DHT22;16247;50.840;4.382;2023-09-19T03:20:40;16.00;99.90
29207;DHT22;16247;50.840;4.382;2023-09-19T03:23:06;16.10;99.90
29207;DHT22;16247;50.840;4.382;2023-09-19T03:25:39;15.90;99.90
29207;DHT22;16247;50.840;4.382;2023-09-19T03:28:06;15.90;99.90
29207;DHT22;16247;50.840;4.382;2023-09-19T03:30:33;16.00;99.90
29207;DHT22;16247;50.840;4.382;2023-09-19T03:33:02;16.00;99.90
29207;DHT22;16247;50.840;4.382;2023-09-19T03:35:29;15.90;99.90
29207;DHT22;16247;50.840;4.382;2023-09-19T03:37:56;15.70;99.90
29207;DHT22;16247;50.840;4.382;2023-09-19T03:40:22;15.90;99.90
29207;DHT22;16247;50.840;4.382;2023-09-19T03:42:49;15.70;99.90
29207;DHT22;16247;50.840;4.382;2023-09-19T03:45:19;15.90;99.90
29207;DHT22;16247;50.840;4.382;2023-09-19T03:48:23;15.80;99.90
29207;DHT22;16247;50.840;4.382;2023-09-19T03:50:49;16.00;99.90
29207;DHT22;16247;50.840;4.382;2023-09-19T03:53:17;16.00;99.90
29207;DHT22;16247;50.840;4.382;2023-09-19T03:55:45;15.90;99.90
29207;DHT22;16247;50.840;4.382;2023-09-19T03:58:11;15.80;99.90
29207;DHT22;16247;50.840;4.382;2023-09-19T04:00:37;15.70;99.90
29207;DHT22;16247;50.840;4.382;2023-09-19T04:03:04;15.70;99.90
29207;DHT22;16247;50.840;4.382;2023-09-19T04:05:31;15.60;99.90
29207;DHT22;16247;50.840;4.382;2023-09-19T04:07:59;15.70;99.90
29207;DHT22;16247;50.840;4.382;2023-09-19T04:10:25;15.70;99.90
29207;DHT22;16247;50.840;4.382;2023-09-19T04:12:54;15.80;99.90
29207;DHT22;16247;50.840;4.382;2023-09-19T04:15:20;15.90;99.90
29207;DHT22;16247;50.840;4.382;2023-09-19T04:17:50;15.70;99.90
29207;DHT22;16247;50.840;4.382;2023-09-19T04:20:17;15.80;99.90
29207;DHT22;16247;50.840;4.382;2023-09-19T04:22:43;15.50;99.90
29207;DHT22;16247;50.840;4.382;2023-09-19T04:25:12;15.50;99.90
29207;DHT22;16247;50.840;4.382;2023-09-19T04:27:38;15.40;99.90
29207;DHT22;16247;50.840;4.382;2023-09-19T04:30:06;15.30;99.90
29207;DHT22;16247;50.840;4.382;2023-09-19T04:32:36;15.50;99.90
29207;DHT22;16247;50.840;4.382;2023-09-19T04:35:08;15.60;99.90
29207;DHT22;16247;50.840;4.382;2023-09-19T04:37:40;15.50;99.90
29207;DHT22;16247;50.840;4.382;2023-09-19T04:40:12;15.50;99.90
29207;DHT22;16247;50.840;4.382;2023-09-19T04:42:41;15.60;99.90
29207;DHT22;16247;50.840;4.382;2023-09-19T04:45:16;15.50;99.90
29207;DHT22;16247;50.840;4.382;2023-09-19T04:47:52;15.50;99.90
29207;DHT22;16247;50.840;4.382;2023-09-19T04:50:41;15.40;99.90
29207;DHT22;16247;50.840;4.382;2023-09-19T04:53:18;15.60;99.90
29207;DHT22;16247;50.840;4.382;2023-09-19T04:55:51;15.60;99.90
29207;DHT22;16247;50.840;4.382;2023-09-19T04:58:27;15.60;99.90
29207;DHT22;16247;50.840;4.382;2023-09-19T05:00:53;15.50;99.90
29207;DHT22;16247;50.840;4.382;2023-09-19T05:03:20;15.30;99.90
29207;DHT22;16247;50.840;4.382;2023-09-19T05:05:47;15.30;99.90
29207;DHT22;16247;50.840;4.382;2023-09-19T05:08:14;15.40;99.90
29207;DHT22;16247;50.840;4.382;2023-09-19T05:10:40;15.50;99.90
29207;DHT22;16247;50.840;4.382;2023-09-19T05:13:08;15.50;99.90
29207;DHT22;16247;50.840;4.382;2023-09-19T05:15:35;15.50;99.90
29207;DHT22;16247;50.840;4.382;2023-09-19T05:18:01;15.50;99.90
29207;DHT22;16247;50.840;4.382;2023-09-19T05:20:27;15.50;99.90
29207;DHT22;16247;50.840;4.382;2023-09-19T05:23:07;15.40;99.90
29207;DHT22;16247;50.840;4.382;2023-09-19T05:25:38;15.50;99.90
29207;DHT22;16247;50.840;4.382;2023-09-19T05:28:06;15.80;99.90
29207;DHT22;16247;50.840;4.382;2023-09-19T05:30:33;16.10;99.90
29207;DHT22;16247;50.840;4.382;2023-09-19T05:33:01;16.10;99.90
29207;DHT22;16247;50.840;4.382;2023-09-19T05:35:27;16.20;99.90
29207;DHT22;16247;50.840;4.382;2023-09-19T05:37:54;16.20;99.90
29207;DHT22;16247;50.840;4.382;2023-09-19T05:40:20;16.40;99.90
29207;DHT22;16247;50.840;4.382;2023-09-19T05:42:46;16.50;99.90
29207;DHT22;16247;50.840;4.382;2023-09-19T05:45:13;16.80;99.90
29207;DHT22;16247;50.840;4.382;2023-09-19T05:47:42;16.70;99.90
29207;DHT22;16247;50.840;4.382;2023-09-19T05:50:10;16.80;99.90
29207;DHT22;16247;50.840;4.382;2023-09-19T05:52:36;16.80;99.90
29207;DHT22;16247;50.840;4.382;2023-09-19T05:55:05;17.00;99.90
29207;DHT22;16247;50.840;4.382;2023-09-19T05:57:33;16.90;99.90
29207;DHT22;16247;50.840;4.382;2023-09-19T05:59:59;17.10;99.90
29207;DHT22;16247;50.840;4.382;2023-09-19T06:02:25;17.20;99.90
29207;DHT22;16247;50.840;4.382;2023-09-19T06:04:54;16.90;99.90
29207;DHT22;16247;50.840;4.382;2023-09-19T06:07:22;16.80;99.90
29207;DHT22;16247;50.840;4.382;2023-09-19T06:09:49;17.00;99.90
29207;DHT22;16247;50.840;4.382;2023-09-19T06:12:15;17.00;99.90
29207;DHT22;16247;50.840;4.382;2023-09-19T06:14:43;17.10;99.90
29207;DHT22;16247;50.840;4.382;2023-09-19T06:17:08;16.90;99.90
29207;DHT22;16247;50.840;4.382;2023-09-19T06:19:34;16.80;99.90
29207;DHT22;16247;50.840;4.382;2023-09-19T06:22:00;16.70;99.90
29207;DHT22;16247;50.840;4.382;2023-09-19T06:24:26;16.70;99.90
29207;DHT22;16247;50.840;4.382;2023-09-19T06:26:51;16.60;99.90
29207;DHT22;16247;50.840;4.382;2023-09-19T08:26:44;16.90;99.90
29207;DHT22;16247;50.840;4.382;2023-09-19T08:29:36;17.10;99.90
29207;DHT22;16247;50.840;4.382;2023-09-19T08:32:02;17.20;99.90
29207;DHT22;16247;50.840;4.382;2023-09-19T08:37:56;16.80;99.90
29207;DHT22;16247;50.840;4.382;2023-09-19T08:40:48;17.00;99.90
29207;DHT22;16247;50.840;4.382;2023-09-19T08:43:22;17.30;99.90
29207;DHT22;16247;50.840;4.382;2023-09-19T08:46:36;17.10;99.90
29207;DHT22;16247;50.840;4.382;2023-09-19T08:52:20;17.50;99.90
29207;DHT22;16247;50.840;4.382;2023-09-19T08:54:56;17.60;99.90
29207;DHT22;16247;50.840;4.382;2023-09-19T08:57:34;17.70;99.90
29207;DHT22;16247;50.840;4.382;2023-09-19T09:00:15;17.70;99.90
29207;DHT22;16247;50.840;4.382;2023-09-19T09:03:11;17.80;99.90
29207;DHT22;16247;50.840;4.382;2023-09-19T09:05:52;17.90;99.90
29207;DHT22;16247;50.840;4.382;2023-09-19T09:08:33;17.90;99.90
29207;DHT22;16247;50.840;4.382;2023-09-19T09:11:11;17.70;99.90
29207;DHT22;16247;50.840;4.382;2023-09-19T09:13:42;18.00;99.90
29207;DHT22;16247;50.840;4.382;2023-09-19T09:16:22;18.00;99.90
29207;DHT22;16247;50.840;4.382;2023-09-19T09:19:32;18.40;99.90
29207;DHT22;16247;50.840;4.382;2023-09-19T09:22:13;18.10;99.90
29207;DHT22;16247;50.840;4.382;2023-09-19T09:25:51;18.10;99.90
29207;DHT22;16247;50.840;4.382;2023-09-19T09:28:45;18.50;99.90
29207;DHT22;16247;50.840;4.382;2023-09-19T09:31:26;18.30;99.90
29207;DHT22;16247;50.840;4.382;2023-09-19T09:34:00;18.20;99.90
29207;DHT22;16247;50.840;4.382;2023-09-19T09:36:36;18.30;99.90
29207;DHT22;16247;50.840;4.382;2023-09-19T09:39:05;18.40;99.90
29207;DHT22;16247;50.840;4.382;2023-09-19T09:41:51;18.40;99.90
29207;DHT22;16247;50.840;4.382;2023-09-19T09:44:18;18.50;99.90
29207;DHT22;16247;50.840;4.382;2023-09-19T09:46:46;18.60;99.90
29207;DHT22;16247;50.840;4.382;2023-09-19T09:49:22;18.70;99.90
29207;DHT22;16247;50.840;4.382;2023-09-19T09:52:07;18.70;99.90
29207;DHT22;16247;50.840;4.382;2023-09-19T09:55:01;18.90;99.90
29207;DHT22;16247;50.840;4.382;2023-09-19T09:57:47;18.80;99.90
29207;DHT22;16247;50.840;4.382;2023-09-19T10:00:22;18.70;99.90
29207;DHT22;16247;50.840;4.382;2023-09-19T10:02:50;18.70;99.90
29207;DHT22;16247;50.840;4.382;2023-09-19T10:05:39;18.50;99.90
29207;DHT22;16247;50.840;4.382;2023-09-19T10:08:11;18.40;99.90
29207;DHT22;16247;50.840;4.382;2023-09-19T10:11:16;18.40;99.90
29207;DHT22;16247;50.840;4.382;2023-09-19T10:13:49;18.50;99.90
29207;DHT22;16247;50.840;4.382;2023-09-19T10:16:16;18.50;99.90
29207;DHT22;16247;50.840;4.382;2023-09-19T10:18:58;18.60;99.90
29207;DHT22;16247;50.840;4.382;2023-09-19T10:21:31;18.60;99.90
29207;DHT22;16247;50.840;4.382;2023-09-19T10:29:57;18.90;99.90
29207;DHT22;16247;50.840;4.382;2023-09-19T10:32:35;18.90;99.90
29207;DHT22;16247;50.840;4.382;2023-09-19T10:35:18;19.00;99.90
29207;DHT22;16247;50.840;4.382;2023-09-19T10:38:11;19.10;99.90
29207;DHT22;16247;50.840;4.382;2023-09-19T10:40:49;19.30;99.90
29207;DHT22;16247;50.840;4.382;2023-09-19T10:43:26;19.50;99.90
29207;DHT22;16247;50.840;4.382;2023-09-19T10:46:02;19.60;99.90
29207;DHT22;16247;50.840;4.382;2023-09-19T10:48:30;19.40;99.90
29207;DHT22;16247;50.840;4.382;2023-09-19T10:51:09;19.40;99.90
29207;DHT22;16247;50.840;4.382;2023-09-19T10:53:53;19.50;99.90
29207;DHT22;16247;50.840;4.382;2023-09-19T10:56:44;19.30;99.90
29207;DHT22;16247;50.840;4.382;2023-09-19T10:59:18;19.20;99.90
29207;DHT22;16247;50.840;4.382;2023-09-19T11:01:50;19.10;99.90
29207;DHT22;16247;50.840;4.382;2023-09-19T11:04:45;19.40;99.90
29207;DHT22;16247;50.840;4.382;2023-09-19T11:07:18;19.70;99.90
29207;DHT22;16247;50.840;4.382;2023-09-19T11:09:44;19.80;99.90
29207;DHT22;16247;50.840;4.382;2023-09-19T11:14:59;20.00;99.90
29207;DHT22;16247;50.840;4.382;2023-09-19T11:17:35;20.20;99.90
29207;DHT22;16247;50.840;4.382;2023-09-19T11:31:44;20.50;99.90
29207;DHT22;16247;50.840;4.382;2023-09-19T11:48:32;20.20;99.90
29207;DHT22;16247;50.840;4.382;2023-09-19T11:51:00;20.30;99.90
29207;DHT22;16247;50.840;4.382;2023-09-19T11:53:37;20.40;99.90
29207;DHT22;16247;50.840;4.382;2023-09-19T11:56:07;20.40;99.90
29207;DHT22;16247;50.840;4.382;2023-09-19T11:58:37;20.40;99.90
29207;DHT22;16247;50.840;4.382;2023-09-19T12:01:05;20.40;99.90
29207;DHT22;16247;50.840;4.382;2023-09-19T12:03:47;20.30;99.90
29207;DHT22;16247;50.840;4.382;2023-09-19T12:06:25;20.30;99.90
29207;DHT22;16247;50.840;4.382;2023-09-19T12:09:00;20.40;99.90
29207;DHT22;16247;50.840;4.382;2023-09-19T12:11:30;20.30;99.90
29207;DHT22;16247;50.840;4.382;2023-09-19T12:14:03;20.40;99.90
29207;DHT22;16247;50.840;4.382;2023-09-19T12:16:29;20.20;99.90
29207;DHT22;16247;50.840;4.382;2023-09-19T12:19:18;20.10;99.90
29207;DHT22;16247;50.840;4.382;2023-09-19T12:22:04;20.10;99.90
29207;DHT22;16247;50.840;4.382;2023-09-19T12:24:37;20.20;99.90
29207;DHT22;16247;50.840;4.382;2023-09-19T12:27:15;20.20;99.90
29207;DHT22;16247;50.840;4.382;2023-09-19T12:29:48;20.20;99.90
29207;DHT22;16247;50.840;4.382;2023-09-19T12:32:14;20.30;99.90
29207;DHT22;16247;50.840;4.382;2023-09-19T12:34:52;20.30;99.90
29207;DHT22;16247;50.840;4.382;2023-09-19T15:56:09;19.90;99.90
29207;DHT22;16247;50.840;4.382;2023-09-19T15:59:02;19.80;99.90
29207;DHT22;16247;50.840;4.382;2023-09-19T16:01:33;19.90;99.90
29207;DHT22;16247;50.840;4.382;2023-09-19T16:04:19;19.80;99.90
29207;DHT22;16247;50.840;4.382;2023-09-19T16:11:50;19.70;99.90
29207;DHT22;16247;50.840;4.382;2023-09-19T16:14:24;20.00;99.90
29207;DHT22;16247;50.840;4.382;2023-09-19T16:16:57;19.80;99.90
29207;DHT22;16247;50.840;4.382;2023-09-19T16:19:30;19.90;99.90
29207;DHT22;16247;50.840;4.382;2023-09-19T16:22:36;19.80;99.90
29207;DHT22;16247;50.840;4.382;2023-09-19T16:25:06;20.10;99.90
29207;DHT22;16247;50.840;4.382;2023-09-19T16:27:34;20.00;99.90
29207;DHT22;16247;50.840;4.382;2023-09-19T16:30:02;19.80;99.90
29207;DHT22;16247;50.840;4.382;2023-09-19T16:32:33;19.90;99.90
29207;DHT22;16247;50.840;4.382;2023-09-19T16:35:04;19.80;99.90
29207;DHT22;16247;50.840;4.382;2023-09-19T16:37:33;19.70;99.90
29207;DHT22;16247;50.840;4.382;2023-09-19T16:40:05;19.80;99.90
29207;DHT22;16247;50.840;4.382;2023-09-19T16:42:37;19.60;99.90
29207;DHT22;16247;50.840;4.382;2023-09-19T16:45:39;19.70;99.90
29207;DHT22;16247;50.840;4.382;2023-09-19T16:48:11;19.70;99.90
29207;DHT22;16247;50.840;4.382;2023-09-19T16:51:03;19.60;99.90
29207;DHT22;16247;50.840;4.382;2023-09-19T16:53:37;19.70;99.90
29207;DHT22;16247;50.840;4.382;2023-09-19T16:56:15;19.60;99.90
29207;DHT22;16247;50.840;4.382;2023-09-19T16:58:50;19.50;99.90
29207;DHT22;16247;50.840;4.382;2023-09-19T17:01:19;19.50;99.90
29207;DHT22;16247;50.840;4.382;2023-09-19T17:03:49;19.60;99.90
29207;DHT22;16247;50.840;4.382;2023-09-19T17:09:18;19.50;99.90
29207;DHT22;16247;50.840;4.382;2023-09-19T17:12:16;19.30;99.90
29207;DHT22;16247;50.840;4.382;2023-09-19T17:15:04;19.40;99.90
29207;DHT22;16247;50.840;4.382;2023-09-19T17:17:31;19.40;99.90
29207;DHT22;16247;50.840;4.382;2023-09-19T18:50:44;18.80;99.90
29207;DHT22;16247;50.840;4.382;2023-09-19T18:53:13;18.80;99.90
29207;DHT22;16247;50.840;4.382;2023-09-19T18:55:40;18.70;99.90
29207;DHT22;16247;50.840;4.382;2023-09-19T18:58:06;18.70;99.90
29207;DHT22;16247;50.840;4.382;2023-09-19T19:00:33;18.70;99.90
